createdAt,value
2023-03-21T00:00:33.523Z,3.75
2023-03-21T00:03:01.320Z,4.18
2023-03-21T00:05:29.501Z,4.10
2023-03-21T00:07:57.436Z,4.05
2023-03-21T00:10:39.198Z,3.93
2023-03-21T00:13:09.316Z,4.25
2023-03-21T00:16:03.776Z,3.92
2023-03-21T00:18:33.284Z,4.00
2023-03-21T00:21:35.315Z,4.30
2023-03-21T00:23:51.220Z,4.37
2023-03-21T00:26:18.997Z,3.67
2023-03-21T00:28:47.170Z,3.80
2023-03-21T00:31:16.401Z,3.35
2023-03-21T00:33:44.885Z,2.97
2023-03-21T00:36:14.257Z,3.57
2023-03-21T00:38:42.405Z,3.55
2023-03-21T00:41:35.200Z,3.70
2023-03-21T00:44:00.376Z,3.25
2023-03-21T00:46:39.758Z,4.20
2023-03-21T00:49:10.398Z,4.17
2023-03-21T00:51:38.476Z,4.32
2023-03-21T00:54:06.377Z,4.40
2023-03-21T00:56:34.176Z,5.00
2023-03-21T00:59:02.175Z,4.78
2023-03-21T01:01:32.326Z,4.80
2023-03-21T01:04:05.507Z,4.90
2023-03-21T01:06:33.961Z,5.35
2023-03-21T01:09:02.163Z,3.92
2023-03-21T01:11:30.065Z,4.00
2023-03-21T01:14:14.784Z,3.37
2023-03-21T01:16:48.352Z,3.45
2023-03-21T01:19:26.345Z,3.58
2023-03-21T01:21:57.537Z,3.47
2023-03-21T01:24:25.267Z,3.58
2023-03-21T01:26:52.860Z,3.20
2023-03-21T01:29:21.277Z,3.10
2023-03-21T01:31:50.597Z,2.67
2023-03-21T01:34:18.365Z,2.40
2023-03-21T01:36:47.991Z,2.90
2023-03-21T01:39:15.770Z,2.50
2023-03-21T01:41:44.798Z,2.20
2023-03-21T01:44:17.256Z,2.60
2023-03-21T01:46:57.034Z,2.35
2023-03-21T01:49:34.544Z,1.92
2023-03-21T01:52:12.200Z,2.30
2023-03-21T01:54:44.301Z,2.03
2023-03-21T01:57:15.918Z,2.45
2023-03-21T01:59:46.770Z,2.35
2023-03-21T02:02:20.822Z,2.50
2023-03-21T02:04:56.216Z,2.43
2023-03-21T02:07:29.071Z,2.30
2023-03-21T02:09:57.649Z,2.60
2023-03-21T02:12:26.605Z,2.30
2023-03-21T02:14:55.912Z,2.70
2023-03-21T02:17:30.072Z,2.27
2023-03-21T02:20:28.582Z,2.13
2023-03-21T02:23:25.793Z,2.22
2023-03-21T02:26:23.349Z,2.25
2023-03-21T02:28:57.319Z,2.50
2023-03-21T02:31:37.388Z,2.17
2023-03-21T02:34:42.519Z,2.15
2023-03-21T02:37:28.869Z,2.35
2023-03-21T02:40:11.586Z,2.30
2023-03-21T02:42:59.440Z,2.25
2023-03-21T02:45:33.030Z,2.40
2023-03-21T02:48:07.005Z,2.40
2023-03-21T02:50:39.408Z,1.95
2023-03-21T02:53:11.927Z,1.88
2023-03-21T02:55:43.813Z,2.47
2023-03-21T02:58:15.063Z,3.00
2023-03-21T03:00:44.152Z,3.35
2023-03-21T03:03:18.128Z,4.05
2023-03-21T03:05:56.874Z,3.35
2023-03-21T03:08:50.186Z,3.35
2023-03-21T03:11:30.309Z,3.13
2023-03-21T03:17:18.768Z,2.72
2023-03-21T03:20:07.174Z,2.45
2023-03-21T03:22:48.183Z,2.30
2023-03-21T03:25:29.773Z,2.30
2023-03-21T03:28:07.873Z,2.58
2023-03-21T03:30:44.670Z,2.60
2023-03-21T03:33:23.615Z,2.10
2023-03-21T03:36:04.356Z,1.88
2023-03-21T03:38:36.303Z,2.00
2023-03-21T03:41:11.821Z,2.03
2023-03-21T03:43:44.553Z,1.67
2023-03-21T03:46:16.279Z,2.35
2023-03-21T03:48:48.215Z,2.78
2023-03-21T03:51:22.630Z,2.63
2023-03-21T03:53:55.315Z,3.00
2023-03-21T03:56:25.956Z,3.22
2023-03-21T03:58:53.775Z,2.40
2023-03-21T04:01:22.020Z,2.80
2023-03-21T04:03:56.385Z,2.33
2023-03-21T04:06:29.067Z,2.20
2023-03-21T04:08:58.942Z,2.25
2023-03-21T04:11:31.859Z,2.22
2023-03-21T04:13:59.876Z,2.63
2023-03-21T04:16:28.665Z,2.30
2023-03-21T04:18:56.532Z,2.30
2023-03-21T04:21:24.297Z,2.15
2023-03-21T04:23:54.886Z,2.70
2023-03-21T04:26:23.088Z,3.05
2023-03-21T04:28:52.506Z,3.33
2023-03-21T04:31:26.038Z,3.47
2023-03-21T04:33:55.787Z,3.10
2023-03-21T04:36:27.857Z,2.45
2023-03-21T04:38:57.144Z,2.20
2023-03-21T04:41:25.320Z,2.30
2023-03-21T04:43:54.752Z,2.33
2023-03-21T04:46:22.689Z,2.30
2023-03-21T04:48:50.705Z,2.60
2023-03-21T04:51:18.728Z,2.90
2023-03-21T04:53:49.555Z,2.90
2023-03-21T04:56:17.237Z,2.80
2023-03-21T04:58:45.660Z,3.03
2023-03-21T05:01:14.733Z,2.88
2023-03-21T05:03:42.556Z,2.92
2023-03-21T05:06:11.187Z,3.00
2023-03-21T05:08:39.065Z,2.97
2023-03-21T05:11:07.105Z,2.70
2023-03-21T05:13:35.135Z,2.78
2023-03-21T05:16:02.985Z,3.75
2023-03-21T05:18:34.821Z,4.93
2023-03-21T05:21:04.531Z,4.20
2023-03-21T05:23:38.287Z,3.22
2023-03-21T05:26:07.998Z,2.50
2023-03-21T05:28:36.991Z,3.08
2023-03-21T05:31:05.196Z,3.20
2023-03-21T05:33:34.465Z,2.80
2023-03-21T05:36:02.294Z,3.03
2023-03-21T05:38:29.873Z,3.40
2023-03-21T05:40:57.721Z,3.15
2023-03-21T05:43:25.714Z,4.20
2023-03-21T05:45:53.619Z,3.47
2023-03-21T05:48:21.843Z,3.17
2023-03-21T05:50:50.871Z,2.42
2023-03-21T05:53:18.596Z,2.63
2023-03-21T05:55:46.210Z,2.90
2023-03-21T05:58:14.133Z,3.50
2023-03-21T06:00:41.956Z,2.90
2023-03-21T06:03:09.564Z,2.60
2023-03-21T06:05:37.688Z,3.83
2023-03-21T06:08:07.157Z,5.10
2023-03-21T06:10:34.983Z,5.18
2023-03-21T06:13:02.676Z,5.68
2023-03-21T06:15:30.631Z,4.90
2023-03-21T06:17:58.583Z,5.38
2023-03-21T06:20:26.492Z,4.13
2023-03-21T06:22:54.502Z,3.30
2023-03-21T06:25:23.499Z,3.10
2023-03-21T06:27:51.276Z,2.38
2023-03-21T06:30:19.514Z,2.53
2023-03-21T06:32:47.247Z,2.20
2023-03-21T06:35:15.632Z,2.00
2023-03-21T06:37:45.621Z,2.20
2023-03-21T06:40:13.779Z,3.97
2023-03-21T06:42:42.770Z,3.13
2023-03-21T06:45:11.114Z,3.83
2023-03-21T06:47:38.800Z,4.05
2023-03-21T06:50:07.384Z,4.63
2023-03-21T06:52:35.233Z,4.97
2023-03-21T06:55:02.764Z,5.40
2023-03-21T06:57:30.436Z,5.63
2023-03-21T06:59:59.359Z,5.38
2023-03-21T07:02:27.347Z,5.05
2023-03-21T07:04:55.495Z,2.78
2023-03-21T07:07:27.078Z,2.03
2023-03-21T07:09:54.668Z,2.10
2023-03-21T07:12:24.486Z,1.95
2023-03-21T07:14:52.377Z,2.00
2023-03-21T07:17:21.352Z,2.00
2023-03-21T07:19:49.147Z,1.80
2023-03-21T07:22:16.867Z,2.03
2023-03-21T07:24:55.887Z,2.20
2023-03-21T07:27:30.443Z,2.00
2023-03-21T07:29:57.988Z,1.88
2023-03-21T07:32:30.132Z,2.00
2023-03-21T07:34:59.600Z,2.13
2023-03-21T07:37:29.238Z,2.20
2023-03-21T07:39:57.134Z,2.67
2023-03-21T07:42:24.741Z,2.05
2023-03-21T07:44:54.917Z,1.80
2023-03-21T07:47:22.656Z,1.93
2023-03-21T07:49:51.868Z,1.42
2023-03-21T07:52:19.813Z,1.90
2023-03-21T07:54:47.435Z,1.63
2023-03-21T07:57:15.263Z,1.52
2023-03-21T07:59:42.840Z,1.53
2023-03-21T08:02:12.243Z,1.50
2023-03-21T08:04:40.124Z,1.67
2023-03-21T08:07:09.121Z,1.88
2023-03-21T08:09:37.515Z,1.75
2023-03-21T08:12:05.853Z,1.43
2023-03-21T08:14:33.486Z,1.75
2023-03-21T08:17:01.675Z,1.42
2023-03-21T08:19:29.286Z,1.80
2023-03-21T08:21:59.773Z,2.20
2023-03-21T08:24:29.031Z,1.57
2023-03-21T08:26:57.223Z,1.45
2023-03-21T08:29:25.617Z,2.13
2023-03-21T08:31:53.373Z,1.77
2023-03-21T08:34:23.038Z,2.50
2023-03-21T08:36:50.974Z,1.87
2023-03-21T08:39:18.776Z,1.70
2023-03-21T08:41:47.882Z,1.55
2023-03-21T08:44:16.916Z,1.50
2023-03-21T08:46:44.590Z,2.08
2023-03-21T08:49:12.717Z,1.30
2023-03-21T08:51:41.322Z,1.40
2023-03-21T08:54:08.997Z,1.50
2023-03-21T08:56:37.624Z,1.52
2023-03-21T08:59:06.773Z,1.60
2023-03-21T09:01:34.366Z,1.40
2023-03-21T09:04:01.987Z,1.20
2023-03-21T09:06:30.175Z,1.15
2023-03-21T09:08:57.852Z,1.80
2023-03-21T09:11:25.497Z,1.58
2023-03-21T09:13:53.287Z,1.20
2023-03-21T09:16:22.437Z,1.35
2023-03-21T09:18:55.573Z,1.40
2023-03-21T09:21:24.025Z,1.25
2023-03-21T09:23:52.993Z,1.10
2023-03-21T09:26:21.464Z,1.23
2023-03-21T09:28:49.288Z,1.10
2023-03-21T09:31:23.162Z,1.20
2023-03-21T09:33:52.941Z,1.20
2023-03-21T09:36:21.934Z,1.10
2023-03-21T09:38:51.088Z,1.20
2023-03-21T09:41:32.145Z,1.45
2023-03-21T09:44:09.182Z,1.27
2023-03-21T09:46:44.621Z,1.60
2023-03-21T09:49:19.045Z,1.45
2023-03-21T09:51:51.162Z,1.20
2023-03-21T09:54:23.573Z,0.88
2023-03-21T09:56:54.684Z,0.90
2023-03-21T09:59:27.596Z,1.02
2023-03-21T10:01:55.971Z,0.90
2023-03-21T10:04:26.818Z,1.00
2023-03-21T10:06:59.328Z,1.17
2023-03-21T10:09:29.334Z,1.23
2023-03-21T10:12:00.441Z,0.98
2023-03-21T10:14:31.559Z,0.82
2023-03-21T10:17:03.660Z,1.70
2023-03-21T10:19:32.934Z,1.25
2023-03-21T10:22:02.666Z,1.08
2023-03-21T10:24:34.388Z,1.13
2023-03-21T10:27:04.369Z,1.13
2023-03-21T10:29:43.456Z,0.70
2023-03-21T10:32:12.496Z,0.98
2023-03-21T10:34:44.237Z,0.90
2023-03-21T10:37:14.077Z,0.90
2023-03-21T10:39:43.532Z,1.23
2023-03-21T10:42:21.631Z,1.00
2023-03-21T10:44:50.646Z,0.95
2023-03-21T10:47:21.938Z,1.10
2023-03-21T10:50:06.907Z,0.73
2023-03-21T10:52:38.260Z,0.90
2023-03-21T10:55:13.333Z,0.93
2023-03-21T10:57:41.251Z,0.90
2023-03-21T11:00:18.442Z,1.00
2023-03-21T11:02:50.466Z,0.88
2023-03-21T11:05:24.425Z,1.10
2023-03-21T11:08:04.131Z,1.07
2023-03-21T11:10:34.737Z,1.00
2023-03-21T11:13:06.926Z,0.90
2023-03-21T11:15:42.300Z,1.10
2023-03-21T11:18:20.676Z,1.30
2023-03-21T11:20:53.946Z,1.03
2023-03-21T11:23:22.876Z,1.05
2023-03-21T11:25:51.805Z,1.08
2023-03-21T11:28:22.649Z,1.00
2023-03-21T11:30:52.353Z,0.98
2023-03-21T11:33:21.388Z,1.10
2023-03-21T11:36:01.595Z,1.65
2023-03-21T11:38:32.554Z,1.52
2023-03-21T11:41:02.257Z,1.02
2023-03-21T11:43:32.865Z,1.80
2023-03-21T11:46:06.138Z,1.53
2023-03-21T11:48:38.012Z,1.42
2023-03-21T11:51:19.291Z,1.48
2023-03-21T11:53:52.481Z,1.77
2023-03-21T11:56:33.441Z,1.48
2023-03-21T11:59:15.909Z,1.40
2023-03-21T12:01:57.309Z,1.48
2023-03-21T12:04:47.386Z,1.33
2023-03-21T12:07:28.740Z,1.38
2023-03-21T12:10:10.047Z,1.40
2023-03-21T12:12:47.965Z,1.10
2023-03-21T12:15:21.000Z,1.20
2023-03-21T12:17:58.629Z,1.23
2023-03-21T12:20:36.173Z,0.95
2023-03-21T12:23:20.513Z,1.20
2023-03-21T12:25:55.036Z,1.53
2023-03-21T12:28:33.571Z,1.05
2023-03-21T12:31:10.642Z,0.95
2023-03-21T12:33:49.789Z,1.15
2023-03-21T12:36:29.246Z,0.90
2023-03-21T12:39:09.543Z,0.70
2023-03-21T12:41:44.876Z,0.80
2023-03-21T12:44:15.880Z,0.85
2023-03-21T12:46:48.739Z,1.02
2023-03-21T12:49:22.437Z,0.90
2023-03-21T12:51:54.203Z,0.83
2023-03-21T12:54:31.144Z,0.88
2023-03-21T12:57:02.701Z,0.90
2023-03-21T12:59:37.434Z,1.00
2023-03-21T13:02:19.301Z,1.02
2023-03-21T13:05:01.193Z,1.50
2023-03-21T13:07:32.671Z,1.17
2023-03-21T13:10:03.256Z,1.23
2023-03-21T13:12:44.721Z,0.90
2023-03-21T13:15:34.540Z,1.10
2023-03-21T13:18:11.115Z,1.20
2023-03-21T13:20:45.294Z,1.23
2023-03-21T13:23:13.548Z,1.00
2023-03-21T13:25:47.663Z,1.00
2023-03-21T13:28:21.986Z,1.05
2023-03-21T13:30:50.881Z,1.10
2023-03-21T13:33:25.873Z,0.82
2023-03-21T13:36:05.443Z,1.55
2023-03-21T13:38:35.489Z,1.35
2023-03-21T13:41:09.371Z,1.08
2023-03-21T13:43:43.514Z,0.93
2023-03-21T13:46:12.525Z,0.85
2023-03-21T13:48:57.855Z,1.00
2023-03-21T13:51:58.675Z,0.60
2023-03-21T13:54:44.730Z,1.02
2023-03-21T13:57:39.186Z,1.30
2023-03-21T14:00:21.146Z,1.17
2023-03-21T14:02:56.459Z,1.00
2023-03-21T14:05:26.106Z,0.98
2023-03-21T14:08:06.017Z,0.90
2023-03-21T14:10:42.213Z,1.10
2023-03-21T14:13:17.789Z,0.70
2023-03-21T14:15:55.889Z,0.80
2023-03-21T14:18:28.421Z,0.95
2023-03-21T14:21:23.434Z,0.55
2023-03-21T14:23:58.154Z,0.90
2023-03-21T14:26:27.472Z,1.00
2023-03-21T14:28:56.496Z,0.98
2023-03-21T14:31:24.704Z,0.70
2023-03-21T14:33:54.547Z,0.60
2023-03-21T14:36:25.849Z,0.70
2023-03-21T14:39:05.006Z,0.77
2023-03-21T14:41:35.301Z,1.15
2023-03-21T14:44:13.728Z,1.00
2023-03-21T14:46:42.708Z,0.80
2023-03-21T14:49:15.443Z,0.80
2023-03-21T14:51:43.422Z,0.80
2023-03-21T14:54:17.588Z,1.10
2023-03-21T14:56:48.788Z,1.02
2023-03-21T14:59:22.070Z,1.35
2023-03-21T15:01:52.363Z,0.70
2023-03-21T15:04:21.814Z,1.25
2023-03-21T15:06:54.449Z,1.00
2023-03-21T15:09:28.045Z,0.95
2023-03-21T15:11:58.581Z,1.00
2023-03-21T15:14:32.346Z,1.00
2023-03-21T15:17:04.238Z,0.95
2023-03-21T15:19:34.834Z,1.10
2023-03-21T15:22:10.139Z,1.27
2023-03-21T15:24:42.339Z,1.20
2023-03-21T15:27:16.271Z,1.20
2023-03-21T15:29:46.121Z,1.10
2023-03-21T15:32:17.990Z,0.80
2023-03-21T15:34:46.489Z,1.15
2023-03-21T15:37:22.652Z,1.05
2023-03-21T15:39:52.406Z,0.80
2023-03-21T15:42:33.467Z,0.98
2023-03-21T15:45:09.825Z,0.90
2023-03-21T15:47:42.704Z,1.55
2023-03-21T15:50:18.359Z,2.00
2023-03-21T15:52:46.412Z,0.93
2023-03-21T15:55:26.361Z,0.80
2023-03-21T15:57:56.506Z,1.20
2023-03-21T16:00:32.943Z,1.63
2023-03-21T16:03:06.532Z,1.90
2023-03-21T16:05:35.418Z,1.10
2023-03-21T16:08:18.754Z,1.40
2023-03-21T16:10:49.018Z,0.98
2023-03-21T16:13:17.485Z,1.00
2023-03-21T16:15:46.880Z,1.00
2023-03-21T16:18:16.731Z,0.80
2023-03-21T16:20:46.287Z,0.98
2023-03-21T16:23:15.625Z,1.02
2023-03-21T16:25:44.949Z,1.10
2023-03-21T16:28:15.825Z,1.42
2023-03-21T16:30:43.587Z,1.40
2023-03-21T16:33:14.068Z,1.20
2023-03-21T16:35:42.238Z,1.80
2023-03-21T16:38:11.334Z,1.92
2023-03-21T16:40:41.791Z,1.95
2023-03-21T16:43:10.450Z,3.30
2023-03-21T16:45:40.398Z,2.92
2023-03-21T16:48:12.468Z,3.15
2023-03-21T16:50:44.075Z,2.00
2023-03-21T16:53:11.664Z,2.72
2023-03-21T16:55:39.687Z,2.43
2023-03-21T16:58:07.774Z,2.80
2023-03-21T17:00:37.060Z,1.98
2023-03-21T17:03:15.358Z,2.95
2023-03-21T17:05:44.428Z,5.45
2023-03-21T17:08:17.324Z,3.73
2023-03-21T17:10:45.903Z,3.20
2023-03-21T17:13:13.726Z,2.83
2023-03-21T17:15:42.154Z,2.13
2023-03-21T17:18:11.513Z,3.08
2023-03-21T17:20:41.540Z,2.30
2023-03-21T17:23:11.030Z,3.00
2023-03-21T17:25:38.869Z,4.35
2023-03-21T17:28:06.830Z,2.80
2023-03-21T17:30:40.380Z,3.58
2023-03-21T17:33:09.253Z,3.07
2023-03-21T17:35:37.298Z,2.70
2023-03-21T17:38:06.351Z,2.28
2023-03-21T17:40:35.754Z,2.22
2023-03-21T17:43:03.550Z,2.70
2023-03-21T17:45:31.463Z,3.53
2023-03-21T17:47:59.509Z,3.95
2023-03-21T17:50:34.221Z,3.47
2023-03-21T17:53:01.842Z,3.47
2023-03-21T17:55:31.416Z,3.25
2023-03-21T17:58:01.077Z,2.40
2023-03-21T18:00:31.396Z,2.75
2023-03-21T18:02:59.534Z,2.80
2023-03-21T18:05:27.755Z,2.55
2023-03-21T18:08:12.507Z,3.08
2023-03-21T18:10:41.942Z,3.17
2023-03-21T18:13:11.929Z,2.55
2023-03-21T18:15:44.924Z,3.08
2023-03-21T18:18:13.305Z,3.20
2023-03-21T18:20:58.476Z,3.00
2023-03-21T18:23:26.831Z,2.70
2023-03-21T18:25:54.951Z,2.20
2023-03-21T18:28:24.183Z,2.28
2023-03-21T18:31:08.277Z,2.30
2023-03-21T18:33:40.347Z,2.22
2023-03-21T18:36:09.367Z,1.87
2023-03-21T18:38:37.817Z,2.13
2023-03-21T18:41:07.838Z,3.58
2023-03-21T18:46:25.986Z,4.03
2023-03-21T18:48:53.764Z,3.17
2023-03-21T18:51:22.826Z,2.72
2023-03-21T18:53:50.791Z,3.30
2023-03-21T18:57:06.072Z,2.88
2023-03-21T18:59:08.769Z,4.68
2023-03-21T19:01:37.271Z,4.60
2023-03-21T19:04:20.761Z,6.82
2023-03-21T19:06:51.764Z,16.42
2023-03-21T19:09:19.905Z,17.95
2023-03-21T19:11:48.021Z,9.60
2023-03-21T19:14:19.328Z,6.50
2023-03-21T19:17:34.545Z,3.15
2023-03-21T19:19:35.292Z,2.67
2023-03-21T19:22:03.408Z,2.55
2023-03-21T19:24:31.267Z,3.35
2023-03-21T19:26:59.013Z,3.63
2023-03-21T19:29:28.205Z,4.03
2023-03-21T19:31:55.914Z,3.97
2023-03-21T19:34:23.559Z,4.60
2023-03-21T19:36:52.655Z,4.50
2023-03-21T19:39:22.526Z,4.50
2023-03-21T19:41:51.071Z,4.13
2023-03-21T19:44:19.710Z,4.68
2023-03-21T19:46:48.961Z,3.80
2023-03-21T19:49:20.282Z,3.95
2023-03-21T19:51:49.656Z,5.47
2023-03-21T19:54:18.539Z,5.70
2023-03-21T19:56:48.068Z,4.93
2023-03-21T19:59:16.633Z,4.75
2023-03-21T20:01:44.522Z,6.38
2023-03-21T20:04:14.787Z,4.73
2023-03-21T20:06:42.384Z,4.75
2023-03-21T20:09:49.707Z,4.20
2023-03-21T20:12:00.758Z,3.30
2023-03-21T20:14:28.640Z,3.95
2023-03-21T20:16:57.204Z,4.37
2023-03-21T20:19:26.196Z,3.33
2023-03-21T20:21:59.234Z,3.40
2023-03-21T20:24:28.273Z,3.40
2023-03-21T20:26:57.354Z,3.47
2023-03-21T20:32:13.459Z,3.03
2023-03-21T20:34:44.350Z,4.32
2023-03-21T20:37:13.064Z,5.55
2023-03-21T20:39:41.153Z,6.70
2023-03-21T20:42:09.170Z,5.77
2023-03-21T20:44:58.697Z,6.85
2023-03-21T20:47:25.131Z,5.90
2023-03-21T20:49:54.340Z,4.25
2023-03-21T20:55:11.688Z,3.33
2023-03-21T20:57:40.684Z,2.67
2023-03-21T21:00:15.126Z,2.67
2023-03-21T21:02:44.434Z,2.58
2023-03-21T21:05:25.820Z,2.50
2023-03-21T21:07:56.582Z,2.40
2023-03-21T21:10:25.768Z,2.50
2023-03-21T21:12:53.589Z,2.20
2023-03-21T21:15:21.479Z,2.22
2023-03-21T21:18:07.075Z,2.92
2023-03-21T21:20:39.246Z,3.40
2023-03-21T21:23:09.667Z,3.20
2023-03-21T21:25:37.690Z,4.30
2023-03-21T21:28:09.232Z,4.68
2023-03-21T21:30:41.200Z,4.15
2023-03-21T21:33:09.823Z,3.90
2023-03-21T21:35:39.452Z,3.85
2023-03-21T21:38:07.338Z,3.47
2023-03-21T21:40:34.911Z,4.10
2023-03-21T21:43:03.894Z,3.70
2023-03-21T21:45:31.672Z,3.00
2023-03-21T21:47:59.439Z,3.47
2023-03-21T21:50:27.037Z,4.65
2023-03-21T21:52:55.949Z,4.65
2023-03-21T21:55:23.977Z,4.22
2023-03-21T21:57:53.084Z,2.90
2023-03-21T22:00:21.389Z,2.45
2023-03-21T22:02:49.215Z,2.88
2023-03-21T22:05:19.113Z,3.00
2023-03-21T22:07:47.542Z,2.80
2023-03-21T22:10:17.018Z,2.63
2023-03-21T22:12:44.781Z,2.83
2023-03-21T22:15:13.265Z,2.70
2023-03-21T22:17:41.745Z,2.83
2023-03-21T22:20:12.201Z,2.50
2023-03-21T22:22:39.840Z,2.13
2023-03-21T22:25:10.033Z,2.33
2023-03-21T22:27:39.268Z,2.25
2023-03-21T22:30:09.546Z,2.40
2023-03-21T22:32:38.784Z,2.20
2023-03-21T22:35:09.113Z,2.50
2023-03-21T22:37:38.685Z,2.50
2023-03-21T22:40:09.848Z,2.60
2023-03-21T22:42:39.681Z,2.10
2023-03-21T22:45:09.065Z,2.60
2023-03-21T22:47:36.815Z,2.40
2023-03-21T22:50:05.687Z,2.25
2023-03-21T22:52:33.423Z,2.20
2023-03-21T22:55:00.968Z,2.13
2023-03-21T22:57:28.747Z,2.08
2023-03-21T22:59:57.650Z,2.47
2023-03-21T23:02:25.555Z,1.98
2023-03-21T23:04:53.259Z,2.45
2023-03-21T23:07:21.068Z,2.10
2023-03-21T23:09:48.712Z,2.40
2023-03-21T23:12:17.024Z,2.10
2023-03-21T23:14:44.659Z,1.98
2023-03-21T23:17:13.601Z,2.10
2023-03-21T23:19:41.625Z,2.20
2023-03-21T23:22:09.510Z,2.70
2023-03-21T23:24:37.108Z,2.50
2023-03-21T23:27:04.845Z,2.67
2023-03-21T23:29:32.730Z,2.20
2023-03-21T23:32:00.905Z,2.35
2023-03-21T23:34:31.660Z,2.17
2023-03-21T23:36:59.351Z,1.83
2023-03-21T23:39:28.264Z,1.98
2023-03-21T23:41:58.312Z,2.33
2023-03-21T23:44:26.364Z,2.30
2023-03-21T23:46:53.965Z,2.40
2023-03-21T23:49:21.737Z,2.10
2023-03-21T23:51:51.040Z,2.28
2023-03-21T23:54:18.761Z,2.08
2023-03-21T23:56:46.550Z,2.08
2023-03-21T23:59:14.157Z,2.13
